Time;durP1;ratioP1;P1;durP2;ratioP2;P2;SDS_P1;SDS_P2;PMS_P1;PMS_P2;Temp;Humidity;BMP_temperature;BMP_pressure;BME280_temperature;BME280_humidity;BME280_pressure;Samples;Min_cycle;Max_cycle;Signal;HPM_P1;HPM_P2
2022/05/18 00:00:11;;;;;;;;;;;;;;;16.17;63.67;97356.19;30001;982;1834;-58
2022/05/18 00:00:44;;;;;;;;;;;;;;;16.15;64.87;97363.91;30001;982;1882;-59
2022/05/18 00:01:14;;;;;;;;;;;;;;;16.12;64.13;97348.13;30001;982;1886;-57
2022/05/18 00:01:45;;;;;;;;;;;;;;;16.11;64.23;97365.66;30001;983;1868;-58
2022/05/18 00:02:16;;;;;;;;;;;;;;;16.11;64.13;97362.94;30001;983;1864;-57
2022/05/18 00:02:47;;;;;;;;;;;;;;;16.09;64.12;97361.31;30001;983;1804;-58
2022/05/18 00:03:20;;;;;;;;;;;;;;;16.09;64.03;97349.56;30001;983;1885;-57
2022/05/18 00:03:52;;;;;;;;;;;;;;;16.08;64.07;97358.88;30001;983;1881;-59
2022/05/18 00:04:23;;;;;;;;;;;;;;;16.08;64.11;97359.69;30001;983;1886;-58
2022/05/18 00:04:53;;;;;;;;;;;;;;;16.08;63.98;97361.63;30001;983;1868;-57
2022/05/18 00:05:24;;;;;;;;;;;;;;;16.07;64.00;97368.22;30001;983;1877;-57
2022/05/18 00:05:58;;;;;;;;;;;;;;;16.07;64.83;97360.00;30001;983;1881;-58
2022/05/18 00:06:29;;;;;;;;;;;;;;;16.04;63.99;97358.72;30001;983;1886;-57
2022/05/18 00:07:00;;;;;;;;;;;;;;;16.03;64.37;97370.78;30001;982;1882;-58
2022/05/18 00:07:31;;;;;;;;;;;;;;;16.05;64.40;97357.59;30001;982;1873;-57
2022/05/18 00:08:02;;;;;;;;;;;;;;;16.04;64.55;97349.69;30001;982;1873;-57
2022/05/18 00:08:36;;;;;;;;;;;;;;;16.03;64.55;97351.63;30001;982;1873;-57
2022/05/18 00:09:06;;;;;;;;;;;;;;;16.02;64.43;97355.47;30001;982;1873;-57
2022/05/18 00:09:37;;;;;;;;;;;;;;;16.01;64.00;97356.59;30001;983;1885;-57
2022/05/18 00:10:09;;;;;;;;;;;;;;;16.01;63.85;97348.41;30001;983;1881;-58
2022/05/18 00:10:42;;;;;;;;;;;;;;;16.01;64.04;97359.34;30001;983;1886;-57
2022/05/18 00:11:15;;;;;;;;;;;;;;;16.01;63.95;97359.34;30001;983;1881;-57
2022/05/18 00:11:46;;;;;;;;;;;;;;;16.00;63.90;97352.25;30001;983;1886;-58
2022/05/18 00:12:17;;;;;;;;;;;;;;;16.00;63.72;97346.78;30001;983;1881;-59
2022/05/18 00:12:49;;;;;;;;;;;;;;;16.01;63.87;97353.88;30001;983;1886;-57
2022/05/18 00:13:20;;;;;;;;;;;;;;;16.02;63.94;97352.75;30001;983;1868;-57
2022/05/18 00:13:52;;;;;;;;;;;;;;;16.01;63.54;97348.41;30001;983;1877;-58
2022/05/18 00:14:23;;;;;;;;;;;;;;;16.02;63.84;97352.75;30001;982;1882;-57
2022/05/18 00:14:54;;;;;;;;;;;;;;;16.03;63.61;97359.84;30001;982;1886;-58
2022/05/18 00:15:26;;;;;;;;;;;;;;;16.02;63.64;97352.75;30001;982;1868;-58
2022/05/18 00:15:57;;;;;;;;;;;;;;;16.03;63.63;97350.81;30001;982;1877;-57
2022/05/18 00:16:28;;;;;;;;;;;;;;;16.02;63.99;97350.00;30001;982;1882;-57
2022/05/18 00:17:03;;;;;;;;;;;;;;;16.03;63.49;97356.28;30001;983;1885;-57
2022/05/18 00:17:37;;;;;;;;;;;;;;;16.03;63.70;97357.09;30001;983;1881;-58
2022/05/18 00:18:08;;;;;;;;;;;;;;;16.02;63.61;97352.75;30001;983;1885;-58
2022/05/18 00:18:39;;;;;;;;;;;;;;;16.01;63.96;97353.88;30001;983;1881;-58
2022/05/18 00:19:10;;;;;;;;;;;;;;;16.02;63.47;97354.69;30001;983;1886;-58
2022/05/18 00:19:41;;;;;;;;;;;;;;;16.03;63.57;97364.50;30001;983;1881;-58
2022/05/18 00:20:12;;;;;;;;;;;;;;;16.02;63.71;97355.47;30001;983;1873;-58
2022/05/18 00:20:43;;;;;;;;;;;;;;;16.02;63.80;97360.16;30001;983;1873;-58
2022/05/18 00:21:14;;;;;;;;;;;;;;;16.00;64.05;97360.47;30001;982;1873;-57
2022/05/18 00:21:45;;;;;;;;;;;;;;;15.99;64.05;97364.31;30001;982;1873;-58
2022/05/18 00:22:17;;;;;;;;;;;;;;;15.97;63.90;97366.56;30001;986;1877;-58
2022/05/18 00:22:49;;;;;;;;;;;;;;;15.97;64.30;97360.28;30001;982;1886;-57
2022/05/18 00:23:20;;;;;;;;;;;;;;;15.96;63.93;97361.41;30001;982;1882;-58
2022/05/18 00:23:51;;;;;;;;;;;;;;;15.95;64.24;97365.25;30001;982;1886;-58
2022/05/18 00:24:22;;;;;;;;;;;;;;;15.94;64.48;97363.69;30001;983;1881;-58
2022/05/18 00:24:53;;;;;;;;;;;;;;;15.93;64.64;97368.34;30001;983;1885;-57
2022/05/18 00:25:26;;;;;;;;;;;;;;;15.92;64.42;97361.25;30001;983;1881;-59
2022/05/18 00:25:57;;;;;;;;;;;;;;;15.92;64.79;97364.00;30001;983;1885;-57
2022/05/18 00:26:28;;;;;;;;;;;;;;;15.92;64.68;97365.94;30001;983;1868;-58
2022/05/18 00:27:03;;;;;;;;;;;;;;;15.89;64.49;97356.41;30001;983;1877;-58
2022/05/18 00:27:34;;;;;;;;;;;;;;;15.90;64.28;97363.50;30001;983;1881;-57
2022/05/18 00:28:05;;;;;;;;;;;;;;;15.90;64.63;97368.97;30001;983;1886;-57
2022/05/18 00:28:36;;;;;;;;;;;;;;;15.89;64.32;97367.38;30001;982;1881;-58
2022/05/18 00:29:07;;;;;;;;;;;;;;;15.88;64.42;97365.75;30001;982;1886;-57
2022/05/18 00:29:38;;;;;;;;;;;;;;;15.88;64.03;97368.47;30001;982;1882;-58
2022/05/18 00:30:11;;;;;;;;;;;;;;;15.87;64.32;97369.59;30001;982;1886;-58
2022/05/18 00:30:41;;;;;;;;;;;;;;;15.87;64.23;97369.59;30001;982;1882;-58
2022/05/18 00:31:14;;;;;;;;;;;;;;;15.86;64.57;97364.44;30001;982;1886;-57
2022/05/18 00:31:48;;;;;;;;;;;;;;;15.86;64.47;97373.47;30001;982;1869;-58
2022/05/18 00:32:20;;;;;;;;;;;;;;;15.84;64.67;97370.22;30001;983;1876;-58
2022/05/18 00:32:50;;;;;;;;;;;;;;;15.84;64.11;97375.72;30001;983;1881;-57
2022/05/18 00:33:21;;;;;;;;;;;;;;;15.83;64.44;97368.62;30001;983;1885;-57
2022/05/18 00:33:52;;;;;;;;;;;;;;;15.84;64.49;97370.22;30001;983;1881;-59
2022/05/18 00:34:24;;;;;;;;;;;;;;;15.84;64.54;97372.97;30001;983;1885;-58
2022/05/18 00:34:54;;;;;;;;;;;;;;;15.83;64.51;97368.62;30001;983;1881;-58
2022/05/18 00:35:25;;;;;;;;;;;;;;;15.84;64.43;97370.22;30001;983;1886;-57
2022/05/18 00:35:59;;;;;;;;;;;;;;;15.83;64.18;97374.09;30001;983;1882;-58
2022/05/18 00:36:29;;;;;;;;;;;;;;;15.84;64.29;97372.97;30001;982;1873;-58
2022/05/18 00:37:00;;;;;;;;;;;;;;;15.82;64.23;97372.47;30001;982;1873;-57
2022/05/18 00:37:31;;;;;;;;;;;;;;;15.84;64.52;97370.22;30001;982;1886;-57
2022/05/18 00:38:03;;;;;;;;;;;;;;;15.84;64.20;97367.50;30001;982;1882;-57
2022/05/18 00:38:34;;;;;;;;;;;;;;;15.85;64.37;97373.78;30001;982;1886;-57
2022/05/18 00:39:05;;;;;;;;;;;;;;;15.84;64.41;97370.22;30001;982;1882;-58
2022/05/18 00:39:36;;;;;;;;;;;;;;;15.85;64.53;97371.03;30001;983;1885;-59
2022/05/18 00:40:08;;;;;;;;;;;;;;;15.85;64.52;97371.84;30001;983;1868;-58
2022/05/18 00:40:41;;;;;;;;;;;;;;;15.84;64.67;97369.44;30001;983;1877;-57
2022/05/18 00:41:12;;;;;;;;;;;;;;;15.84;64.43;97361.22;30001;983;1881;-57
2022/05/18 00:41:43;;;;;;;;;;;;;;;15.84;64.69;97367.50;30001;983;1886;-58
2022/05/18 00:42:18;;;;;;;;;;;;;;;15.85;64.57;97363.63;30001;983;1868;-57
2022/05/18 00:42:49;;;;;;;;;;;;;;;15.85;64.75;97369.09;30001;983;1877;-57
2022/05/18 00:43:49;;;;;;;;;;;;;;;15.86;64.17;97368.00;30001;983;1882;-58
2022/05/18 00:44:21;;;;;;;;;;;;;;;15.89;64.26;97369.28;30001;982;1788;-59
2022/05/18 00:44:52;;;;;;;;;;;;;;;15.89;64.18;97367.38;30001;982;1882;-58
2022/05/18 00:45:23;;;;;;;;;;;;;;;15.90;64.15;97368.97;30001;982;1886;-58
2022/05/18 00:45:54;;;;;;;;;;;;;;;15.90;63.99;97363.50;30001;982;1882;-58
2022/05/18 00:46:25;;;;;;;;;;;;;;;15.92;64.26;97372.22;30001;983;1872;-57
2022/05/18 00:46:56;;;;;;;;;;;;;;;15.92;64.09;97372.22;30001;983;1872;-57
2022/05/18 00:47:27;;;;;;;;;;;;;;;15.92;64.06;97374.94;30001;983;1872;-57
2022/05/18 00:47:57;;;;;;;;;;;;;;;15.93;63.59;97371.09;30001;983;1872;-57
2022/05/18 00:48:29;;;;;;;;;;;;;;;15.94;63.82;97369.16;30001;983;1885;-57
2022/05/18 00:49:01;;;;;;;;;;;;;;;15.94;63.55;97369.94;30001;983;1881;-57
2022/05/18 00:49:32;;;;;;;;;;;;;;;15.96;63.85;97372.34;30001;983;1886;-58
2022/05/18 00:50:06;;;;;;;;;;;;;;;15.97;63.53;97368.50;30001;983;1882;-57
2022/05/18 00:50:38;;;;;;;;;;;;;;;15.98;63.72;97368.19;30001;983;1886;-57
2022/05/18 00:51:16;;;;;;;;;;;;;;;15.99;63.67;97364.31;30001;983;1881;-57
2022/05/18 00:51:48;;;;;;;;;;;;;;;16.03;63.83;97368.03;30001;982;1886;-57
2022/05/18 00:52:25;;;;;;;;;;;;;;;16.03;63.40;97369.97;30001;982;1882;-58
2022/05/18 00:53:02;;;;;;;;;;;;;;;16.04;63.10;97364.19;30001;982;1873;-57
2022/05/18 00:53:42;;;;;;;;;;;;;;;16.08;63.03;97365.16;30001;982;1873;-58
2022/05/18 00:54:22;;;;;;;;;;;;;;;16.12;62.73;97364.53;30001;983;1872;-57
2022/05/18 00:54:54;;;;;;;;;;;;;;;16.16;62.78;97366.34;30001;983;1872;-57
2022/05/18 00:55:28;;;;;;;;;;;;;;;16.18;62.88;97360.53;30001;983;1885;-57
2022/05/18 00:56:01;;;;;;;;;;;;;;;16.18;62.61;97366.81;30001;983;1881;-57
2022/05/18 00:56:36;;;;;;;;;;;;;;;16.20;62.62;97366.50;30001;983;1886;-57
2022/05/18 00:57:13;;;;;;;;;;;;;;;16.21;62.84;97362.66;30001;983;1882;-57
2022/05/18 00:58:02;;;;;;;;;;;;;;;16.22;62.51;97365.06;30001;983;1873;-58
2022/05/18 00:58:56;;;;;;;;;;;;;;;16.23;62.51;97360.41;30001;983;1851;-57
2022/05/18 00:59:29;;;;;;;;;;;;;;;16.25;62.26;97363.63;30001;982;1882;-59
2022/05/18 01:00:15;;;;;;;;;;;;;;;16.27;62.66;97361.38;30001;982;1882;-57
2022/05/18 01:00:48;;;;;;;;;;;;;;;16.27;62.63;97358.63;30001;982;1886;-57
2022/05/18 01:01:19;;;;;;;;;;;;;;;16.27;62.45;97362.19;30001;983;1881;-60
2022/05/18 01:01:51;;;;;;;;;;;;;;;16.25;62.35;97360.88;30001;983;1872;-57
2022/05/18 01:02:23;;;;;;;;;;;;;;;16.25;62.69;97364.44;30001;983;1872;-58
2022/05/18 01:03:00;;;;;;;;;;;;;;;16.25;62.80;97358.16;30001;983;1886;-57
2022/05/18 01:03:34;;;;;;;;;;;;;;;16.25;62.45;97363.63;30001;983;1881;-57
2022/05/18 01:04:06;;;;;;;;;;;;;;;16.24;62.66;97357.34;30001;983;1886;-58
2022/05/18 01:04:38;;;;;;;;;;;;;;;16.24;62.39;97362.00;30001;983;1881;-57
2022/05/18 01:05:12;;;;;;;;;;;;;;;16.24;62.94;97359.28;30001;983;1886;-58
2022/05/18 01:05:45;;;;;;;;;;;;;;;16.24;62.75;97356.53;30001;983;1882;-57
2022/05/18 01:06:36;;;;;;;;;;;;;;;16.23;62.88;97360.41;30001;983;1886;-57
2022/05/18 01:07:13;;;;;;;;;;;;;;;16.22;63.07;97354.13;30001;982;1864;-56
2022/05/18 01:07:47;;;;;;;;;;;;;;;16.23;62.73;97358.47;30001;982;1877;-57
2022/05/18 01:08:38;;;;;;;;;;;;;;;16.23;62.70;97361.19;30001;982;1869;-58
2022/05/18 01:09:37;;;;;;;;;;;;;;;16.24;62.97;97356.53;30001;983;1872;-57
2022/05/18 01:10:08;;;;;;;;;;;;;;;16.24;62.77;97354.59;30001;983;1877;-58
2022/05/18 01:10:38;;;;;;;;;;;;;;;16.24;62.85;97348.31;30001;983;1886;-57
2022/05/18 01:11:10;;;;;;;;;;;;;;;16.24;62.87;97354.59;30001;983;1881;-58
2022/05/18 01:11:41;;;;;;;;;;;;;;;16.23;62.58;97346.72;30001;983;1873;-57
2022/05/18 01:12:16;;;;;;;;;;;;;;;16.23;62.68;97355.72;30001;983;1873;-57
2022/05/18 01:12:47;;;;;;;;;;;;;;;16.24;62.63;97351.88;30001;983;1886;-57
2022/05/18 01:13:20;;;;;;;;;;;;;;;16.25;62.58;97347.19;30001;983;1882;-58
2022/05/18 01:13:51;;;;;;;;;;;;;;;16.25;62.31;97350.75;30001;983;1886;-57
2022/05/18 01:14:45;;;;;;;;;;;;;;;16.24;62.25;97354.59;30001;982;1882;-57
2022/05/18 01:15:18;;;;;;;;;;;;;;;16.26;62.55;97351.56;30001;982;1882;-57
2022/05/18 01:15:49;;;;;;;;;;;;;;;16.26;62.40;97348.81;30001;982;1882;-58
2022/05/18 01:16:21;;;;;;;;;;;;;;;16.26;62.80;97348.81;30001;982;1886;-57
2022/05/18 01:16:56;;;;;;;;;;;;;;;16.25;62.43;97352.66;30001;986;1855;-58
2022/05/18 01:17:30;;;;;;;;;;;;;;;16.25;62.60;97355.41;30001;983;1872;-58
2022/05/18 01:18:01;;;;;;;;;;;;;;;16.24;62.15;97351.88;30001;983;1877;-57
2022/05/18 01:18:34;;;;;;;;;;;;;;;16.24;62.16;97351.88;30001;983;1881;-58
2022/05/18 01:19:13;;;;;;;;;;;;;;;16.25;62.72;97358.16;30001;983;1877;-57
2022/05/18 01:19:46;;;;;;;;;;;;;;;16.24;62.31;97353.78;30001;987;1873;-57
2022/05/18 01:20:19;;;;;;;;;;;;;;;16.23;62.88;97349.44;30001;983;1882;-57
2022/05/18 01:20:56;;;;;;;;;;;;;;;16.22;62.75;97358.78;30001;982;1877;-58
2022/05/18 01:21:30;;;;;;;;;;;;;;;16.22;62.99;97353.31;30001;982;1882;-57
2022/05/18 01:22:17;;;;;;;;;;;;;;;16.19;62.79;97356.69;30001;982;1864;-58
2022/05/18 01:22:57;;;;;;;;;;;;;;;16.18;62.94;97358.59;30001;982;1873;-58
2022/05/18 01:23:54;;;;;;;;;;;;;;;16.18;63.09;97366.00;30001;982;1877;-57
2022/05/18 01:24:32;;;;;;;;;;;;;;;16.16;63.59;97360.03;30001;983;1876;-59
2022/05/18 01:25:27;;;;;;;;;;;;;;;16.15;63.71;97359.25;30001;987;1868;-57
2022/05/18 01:26:18;;;;;;;;;;;;;;;16.11;64.09;97357.44;30001;983;1864;-58
2022/05/18 01:26:51;;;;;;;;;;;;;;;16.05;64.40;97360.31;30001;983;1868;-57
2022/05/18 01:27:23;;;;;;;;;;;;;;;16.03;65.10;97370.78;30001;986;1873;-58
2022/05/18 01:27:55;;;;;;;;;;;;;;;15.99;65.02;97367.06;30001;983;1882;-58
2022/05/18 01:28:35;;;;;;;;;;;;;;;15.96;64.92;97367.69;30001;982;1864;-58
2022/05/18 01:29:06;;;;;;;;;;;;;;;15.93;64.81;97371.09;30001;982;1873;-58
2022/05/18 01:29:37;;;;;;;;;;;;;;;15.93;64.99;97368.34;30001;982;1877;-58
2022/05/18 01:30:09;;;;;;;;;;;;;;;15.92;64.73;97365.94;30001;982;1882;-57
2022/05/18 01:30:45;;;;;;;;;;;;;;;15.90;64.70;97371.72;30001;982;1865;-58
2022/05/18 01:31:37;;;;;;;;;;;;;;;15.88;64.92;97371.22;30001;986;1864;-57
2022/05/18 01:32:13;;;;;;;;;;;;;;;15.85;64.90;97371.84;30001;983;1881;-58
2022/05/18 01:32:46;;;;;;;;;;;;;;;15.83;65.67;97370.53;30001;983;1877;-58
2022/05/18 01:33:22;;;;;;;;;;;;;;;15.80;65.56;97373.91;30001;983;1881;-57
2022/05/18 01:33:52;;;;;;;;;;;;;;;15.77;65.29;97374.53;30001;983;1877;-58
2022/05/18 01:34:25;;;;;;;;;;;;;;;15.75;65.67;97366.63;30001;983;1881;-58
2022/05/18 01:34:55;;;;;;;;;;;;;;;15.74;65.71;97370.50;30001;983;1877;-57
2022/05/18 01:35:28;;;;;;;;;;;;;;;15.73;65.19;97368.88;30001;983;1881;-57
2022/05/18 01:35:59;;;;;;;;;;;;;;;15.71;65.51;97371.94;30001;982;1864;-59
2022/05/18 01:36:30;;;;;;;;;;;;;;;15.71;65.68;97371.13;30001;982;1873;-57
2022/05/18 01:37:02;;;;;;;;;;;;;;;15.70;65.63;97369.50;30001;982;1877;-58
2022/05/18 01:37:32;;;;;;;;;;;;;;;15.69;66.02;97374.16;30001;982;1882;-58
2022/05/18 01:38:05;;;;;;;;;;;;;;;15.68;65.86;97363.53;30001;982;1877;-58
2022/05/18 01:38:36;;;;;;;;;;;;;;;15.65;65.88;97373.19;30001;982;1869;-58
2022/05/18 01:39:11;;;;;;;;;;;;;;;15.64;65.66;97376.22;30001;983;1868;-58
2022/05/18 01:39:48;;;;;;;;;;;;;;;15.62;65.99;97378.47;30001;983;1881;-58
2022/05/18 01:40:37;;;;;;;;;;;;;;;15.63;65.82;97374.62;30001;983;1877;-59
2022/05/18 01:41:16;;;;;;;;;;;;;;;15.63;65.51;97366.41;30001;983;1873;-58
2022/05/18 01:41:52;;;;;;;;;;;;;;;15.61;66.09;97368.66;30001;983;1877;-58
2022/05/18 01:42:42;;;;;;;;;;;;;;;15.59;66.18;97374.47;30001;983;1881;-57
2022/05/18 01:43:27;;;;;;;;;;;;;;;15.60;65.93;97369.75;30001;983;1869;-59
2022/05/18 01:43:59;;;;;;;;;;;;;;;15.62;65.71;97373.00;30001;982;1869;-58
2022/05/18 01:44:31;;;;;;;;;;;;;;;15.63;65.53;97377.34;30001;982;1868;-57
2022/05/18 01:45:02;;;;;;;;;;;;;;;15.62;65.50;97373.81;30001;982;1882;-58
2022/05/18 01:45:33;;;;;;;;;;;;;;;15.64;65.75;97374.31;30001;982;1878;-57
2022/05/18 01:46:06;;;;;;;;;;;;;;;15.66;65.43;97374.00;30001;983;1868;-58
2022/05/18 01:46:37;;;;;;;;;;;;;;;15.65;65.19;97377.84;30001;983;1868;-59
2022/05/18 01:47:08;;;;;;;;;;;;;;;15.65;65.41;97377.84;30001;983;1881;-58
2022/05/18 01:47:40;;;;;;;;;;;;;;;15.64;65.61;97370.75;30001;983;1877;-57
2022/05/18 01:48:13;;;;;;;;;;;;;;;15.64;65.37;97376.22;30001;983;1881;-58
2022/05/18 01:48:48;;;;;;;;;;;;;;;15.64;65.63;97377.03;30001;983;1877;-58
2022/05/18 01:49:18;;;;;;;;;;;;;;;15.64;65.19;97387.16;30001;983;1881;-57
2022/05/18 01:49:51;;;;;;;;;;;;;;;15.63;65.78;97380.09;30001;983;1877;-58
2022/05/18 01:50:27;;;;;;;;;;;;;;;15.63;65.42;97382.81;30001;983;1881;-57
2022/05/18 01:50:59;;;;;;;;;;;;;;;15.63;65.52;97382.81;30001;982;1877;-59
2022/05/18 01:51:34;;;;;;;;;;;;;;;15.62;65.84;97378.47;30001;982;1869;-58
2022/05/18 01:52:06;;;;;;;;;;;;;;;15.64;65.48;97381.69;30001;982;1868;-57
2022/05/18 01:52:39;;;;;;;;;;;;;;;15.64;65.27;97381.69;30001;982;1882;-58
2022/05/18 01:53:11;;;;;;;;;;;;;;;15.65;65.34;97386.06;30001;982;1865;-57
2022/05/18 01:53:42;;;;;;;;;;;;;;;15.67;65.46;97386.53;30001;983;1868;-56
2022/05/18 01:54:13;;;;;;;;;;;;;;;15.67;65.38;97381.06;30001;983;1868;-57
2022/05/18 01:54:46;;;;;;;;;;;;;;;15.69;65.06;97384.31;30001;983;1881;-57
2022/05/18 01:55:17;;;;;;;;;;;;;;;15.70;65.14;97380.44;30001;983;1877;-56
2022/05/18 01:55:48;;;;;;;;;;;;;;;15.73;64.94;97382.56;30001;983;1881;-57
2022/05/18 01:56:19;;;;;;;;;;;;;;;15.75;64.93;97385.78;30001;983;1877;-57
2022/05/18 01:56:50;;;;;;;;;;;;;;;15.77;64.56;97386.28;30001;983;1881;-57
2022/05/18 01:57:20;;;;;;;;;;;;;;;15.76;64.59;97387.41;30001;983;1877;-58
2022/05/18 01:57:51;;;;;;;;;;;;;;;15.77;64.64;97380.81;30001;983;1881;-58
2022/05/18 01:58:22;;;;;;;;;;;;;;;15.78;64.52;97384.34;30001;982;1878;-58
2022/05/18 01:58:53;;;;;;;;;;;;;;;15.79;64.78;97388.72;30001;982;1869;-58
2022/05/18 01:59:24;;;;;;;;;;;;;;;15.78;64.36;97382.44;30001;982;1869;-57
2022/05/18 01:59:55;;;;;;;;;;;;;;;15.79;64.54;97384.03;30001;982;1882;-57
2022/05/18 02:00:26;;;;;;;;;;;;;;;15.81;64.38;97386.47;30001;982;1878;-57
2022/05/18 02:00:57;;;;;;;;;;;;;;;15.81;64.38;97381.00;30001;983;1881;-58
2022/05/18 02:01:28;;;;;;;;;;;;;;;15.81;64.47;97381.81;30001;983;1876;-57
2022/05/18 02:01:59;;;;;;;;;;;;;;;15.81;64.40;97381.81;30001;983;1881;-58
2022/05/18 02:02:30;;;;;;;;;;;;;;;15.80;64.47;97385.66;30001;983;1863;-57
2022/05/18 02:03:02;;;;;;;;;;;;;;;15.82;64.55;97383.41;30001;983;1772;-58
2022/05/18 02:03:33;;;;;;;;;;;;;;;15.82;64.28;97385.34;30001;983;1877;-58
2022/05/18 02:04:05;;;;;;;;;;;;;;;15.81;64.63;97387.28;30001;983;1881;-57
2022/05/18 02:04:36;;;;;;;;;;;;;;;15.81;64.53;97387.28;30001;983;1877;-57
2022/05/18 02:05:07;;;;;;;;;;;;;;;15.82;64.52;97374.41;30001;983;1882;-57
2022/05/18 02:05:38;;;;;;;;;;;;;;;15.82;64.57;97388.09;30001;983;1877;-57
2022/05/18 02:06:09;;;;;;;;;;;;;;;15.84;64.73;97381.19;30001;982;1882;-57
2022/05/18 02:06:40;;;;;;;;;;;;;;;15.85;64.49;97387.47;30001;982;1877;-57
2022/05/18 02:07:12;;;;;;;;;;;;;;;15.84;64.68;97378.44;30001;982;1869;-57
2022/05/18 02:07:43;;;;;;;;;;;;;;;15.88;64.43;97375.88;30001;982;1869;-57
2022/05/18 02:08:15;;;;;;;;;;;;;;;15.93;64.04;97383.97;30001;982;1882;-58
2022/05/18 02:08:46;;;;;;;;;;;;;;;15.92;64.21;97376.88;30001;983;1877;-58
2022/05/18 02:09:19;;;;;;;;;;;;;;;15.88;64.00;97384.91;30001;983;1881;-57
2022/05/18 02:09:50;;;;;;;;;;;;;;;15.86;64.49;97378.13;30001;983;1877;-56
2022/05/18 02:10:21;;;;;;;;;;;;;;;15.85;64.09;97376.50;30001;983;1881;-58
2022/05/18 02:10:53;;;;;;;;;;;;;;;15.84;64.74;97375.72;30001;983;1877;-59
2022/05/18 02:11:24;;;;;;;;;;;;;;;15.85;64.51;97379.25;30001;983;1868;-58
2022/05/18 02:11:55;;;;;;;;;;;;;;;15.85;64.49;97382.00;30001;983;1868;-59
2022/05/18 02:12:26;;;;;;;;;;;;;;;15.83;64.69;97376.81;30001;983;1882;-59
2022/05/18 02:12:57;;;;;;;;;;;;;;;15.81;64.65;97381.81;30001;983;1877;-60
2022/05/18 02:13:28;;;;;;;;;;;;;;;15.79;64.94;97378.56;30001;982;1868;-57
2022/05/18 02:13:59;;;;;;;;;;;;;;;15.77;64.84;97385.47;30001;982;1868;-58
2022/05/18 02:14:30;;;;;;;;;;;;;;;15.76;64.67;97379.19;30001;982;1882;-59
2022/05/18 02:15:05;;;;;;;;;;;;;;;15.77;64.81;97374.53;30001;982;1877;-57
2022/05/18 02:15:35;;;;;;;;;;;;;;;15.76;64.70;97371.00;30001;982;1882;-59
2022/05/18 02:16:06;;;;;;;;;;;;;;;15.75;64.73;97377.59;30001;983;1877;-60
2022/05/18 02:16:37;;;;;;;;;;;;;;;15.75;64.90;97375.66;30001;983;1868;-57
2022/05/18 02:17:08;;;;;;;;;;;;;;;15.75;64.71;97367.44;30001;983;1868;-57
2022/05/18 02:17:39;;;;;;;;;;;;;;;15.75;64.67;97377.59;30001;983;1881;-57
2022/05/18 02:18:11;;;;;;;;;;;;;;;15.72;64.79;97367.25;30001;983;1877;-59
2022/05/18 02:18:42;;;;;;;;;;;;;;;15.72;64.58;97372.75;30001;983;1881;-59
2022/05/18 02:19:13;;;;;;;;;;;;;;;15.70;64.73;97369.50;30001;983;1877;-57
2022/05/18 02:19:44;;;;;;;;;;;;;;;15.70;64.97;97366.78;30001;983;1881;-58
2022/05/18 02:20:15;;;;;;;;;;;;;;;15.68;65.01;97361.63;30001;982;1877;-57
2022/05/18 02:20:47;;;;;;;;;;;;;;;15.68;65.12;97366.28;30001;982;1881;-59
2022/05/18 02:21:19;;;;;;;;;;;;;;;15.66;65.01;97369.31;30001;982;1864;-58
2022/05/18 02:21:50;;;;;;;;;;;;;;;15.64;65.15;97374.31;30001;982;1873;-57
2022/05/18 02:22:21;;;;;;;;;;;;;;;15.64;65.53;97370.75;30001;982;1877;-57
2022/05/18 02:22:53;;;;;;;;;;;;;;;15.63;65.25;97363.66;30001;982;1882;-57
2022/05/18 02:23:23;;;;;;;;;;;;;;;15.66;65.25;97363.03;30001;982;1878;-57
2022/05/18 02:23:54;;;;;;;;;;;;;;;15.65;65.08;97366.91;30001;983;1881;-58
2022/05/18 02:24:26;;;;;;;;;;;;;;;15.62;65.23;97368.34;30001;983;1877;-58
2022/05/18 02:24:57;;;;;;;;;;;;;;;15.61;65.43;97371.37;30001;983;1868;-57
2022/05/18 02:25:28;;;;;;;;;;;;;;;15.59;65.15;97373.66;30001;983;1868;-58
2022/05/18 02:26:04;;;;;;;;;;;;;;;15.59;65.36;97373.66;30001;983;1881;-57
2022/05/18 02:26:36;;;;;;;;;;;;;;;15.59;65.48;97373.66;30001;983;1877;-58
2022/05/18 02:27:06;;;;;;;;;;;;;;;15.59;65.37;97365.44;30001;983;1868;-59
2022/05/18 02:27:38;;;;;;;;;;;;;;;15.58;65.36;97374.78;30001;983;1868;-57
2022/05/18 02:28:09;;;;;;;;;;;;;;;15.58;65.37;97375.59;30001;982;1882;-58
2022/05/18 02:28:40;;;;;;;;;;;;;;;15.57;65.55;97375.88;30001;982;1877;-58
2022/05/18 02:29:11;;;;;;;;;;;;;;;15.56;65.27;97379.72;30001;982;1882;-56
2022/05/18 02:29:42;;;;;;;;;;;;;;;15.56;65.28;97374.25;30001;982;1864;-57
2022/05/18 02:30:14;;;;;;;;;;;;;;;15.57;65.39;97381.38;30001;982;1860;-57
2022/05/18 02:30:46;;;;;;;;;;;;;;;15.55;65.60;97367.97;30001;982;1877;-57
2022/05/18 02:31:16;;;;;;;;;;;;;;;15.57;65.36;97375.88;30001;983;1881;-57
2022/05/18 02:31:48;;;;;;;;;;;;;;;15.56;65.64;97374.25;30001;983;1877;-58
2022/05/18 02:32:19;;;;;;;;;;;;;;;15.57;65.61;97378.63;30001;983;1881;-57
2022/05/18 02:32:49;;;;;;;;;;;;;;;15.58;65.21;97372.03;30001;983;1756;-59
2022/05/18 02:33:21;;;;;;;;;;;;;;;15.58;65.47;97377.50;30001;983;1872;-58
2022/05/18 02:33:51;;;;;;;;;;;;;;;15.56;65.62;97374.25;30001;983;1877;-57
2022/05/18 02:34:22;;;;;;;;;;;;;;;15.55;65.26;97375.38;30001;983;1881;-57
2022/05/18 02:34:53;;;;;;;;;;;;;;;15.55;65.42;97372.63;30001;983;1864;-59
2022/05/18 02:35:24;;;;;;;;;;;;;;;15.54;65.67;97379.22;30001;982;1873;-57
2022/05/18 02:35:55;;;;;;;;;;;;;;;15.52;65.88;97367.78;30001;982;1877;-58
2022/05/18 02:36:26;;;;;;;;;;;;;;;15.52;66.02;97370.50;30001;982;1882;-56
2022/05/18 02:36:57;;;;;;;;;;;;;;;15.53;66.17;97377.59;30001;982;1878;-59
2022/05/18 02:37:28;;;;;;;;;;;;;;;15.52;65.60;97379.53;30001;982;1882;-58
2022/05/18 02:37:59;;;;;;;;;;;;;;;15.54;66.16;97376.47;30001;982;1877;-57
2022/05/18 02:38:30;;;;;;;;;;;;;;;15.55;65.89;97372.63;30001;982;1882;-57
2022/05/18 02:39:01;;;;;;;;;;;;;;;15.57;66.19;97378.63;30001;983;1877;-59
2022/05/18 02:39:32;;;;;;;;;;;;;;;15.57;66.12;97373.16;30001;983;1868;-59
2022/05/18 02:40:03;;;;;;;;;;;;;;;15.54;65.95;97376.47;30001;983;1855;-57
2022/05/18 02:40:34;;;;;;;;;;;;;;;15.53;65.76;97377.59;30001;983;1881;-57
2022/05/18 02:41:05;;;;;;;;;;;;;;;15.53;66.15;97374.88;30001;983;1877;-58
2022/05/18 02:41:35;;;;;;;;;;;;;;;15.51;65.95;97371.63;30001;983;1881;-58
2022/05/18 02:42:06;;;;;;;;;;;;;;;15.50;66.00;97378.22;30001;983;1877;-58
2022/05/18 02:42:38;;;;;;;;;;;;;;;15.51;65.91;97377.09;30001;983;1881;-58
2022/05/18 02:43:09;;;;;;;;;;;;;;;15.50;66.36;97375.50;30001;982;1877;-57
2022/05/18 02:43:40;;;;;;;;;;;;;;;15.49;66.08;97369.22;30001;982;1868;-58
2022/05/18 02:44:11;;;;;;;;;;;;;;;15.49;66.11;97373.88;30001;982;1868;-58
2022/05/18 02:44:42;;;;;;;;;;;;;;;15.50;66.03;97376.28;30001;982;1882;-58
2022/05/18 02:45:13;;;;;;;;;;;;;;;15.51;66.13;97377.09;30001;982;1877;-57
2022/05/18 02:45:44;;;;;;;;;;;;;;;15.50;65.99;97375.50;30001;982;1882;-58
2022/05/18 02:46:18;;;;;;;;;;;;;;;15.49;66.17;97384.81;30001;983;1775;-57
2022/05/18 02:46:49;;;;;;;;;;;;;;;15.49;66.09;97379.34;30001;983;1881;-57
2022/05/18 02:47:20;;;;;;;;;;;;;;;15.50;66.31;97383.69;30001;983;1877;-58
2022/05/18 02:47:51;;;;;;;;;;;;;;;15.50;66.11;97380.97;30001;983;1881;-57
2022/05/18 02:48:22;;;;;;;;;;;;;;;15.49;66.16;97384.81;30001;983;1864;-58
2022/05/18 02:48:55;;;;;;;;;;;;;;;15.48;66.25;97392.22;30001;983;1859;-57
2022/05/18 02:49:27;;;;;;;;;;;;;;;15.47;66.45;97392.53;30001;983;1877;-58
2022/05/18 02:49:58;;;;;;;;;;;;;;;15.45;66.01;97383.81;30001;983;1882;-59
2022/05/18 02:50:28;;;;;;;;;;;;;;;15.45;66.68;97400.22;30001;982;1877;-58
2022/05/18 02:50:59;;;;;;;;;;;;;;;15.43;66.32;97393.13;30001;982;1882;-58
2022/05/18 02:51:30;;;;;;;;;;;;;;;15.42;66.38;97396.19;30001;982;1877;-57
2022/05/18 02:52:01;;;;;;;;;;;;;;;15.41;66.51;97400.84;30001;982;1882;-56
2022/05/18 02:52:32;;;;;;;;;;;;;;;15.42;66.74;97396.19;30001;982;1877;-58
2022/05/18 02:53:03;;;;;;;;;;;;;;;15.41;66.44;97400.03;30001;983;1881;-59
2022/05/18 02:53:34;;;;;;;;;;;;;;;15.38;66.50;97396.00;30001;983;1877;-60
2022/05/18 02:56:05;;;;;;;;;;;;;;;15.37;66.17;97399.84;30001;983;1868;-59
2022/05/18 02:56:33;;;;;;;;;;;;;;;15.37;66.59;97401.78;30001;983;1877;-59
2022/05/18 02:57:06;;;;;;;;;;;;;;;15.38;66.48;97406.94;30001;983;1881;-58
2022/05/18 02:57:36;;;;;;;;;;;;;;;15.36;66.68;97409.16;30001;983;1877;-57
2022/05/18 02:58:07;;;;;;;;;;;;;;;15.36;66.46;97402.91;30001;982;1882;-58